createdAt,value
2022-12-27T00:01:54.795Z,96736.91
2022-12-27T00:04:21.480Z,96728.38
2022-12-27T00:06:48.141Z,96744.38
2022-12-27T00:09:14.802Z,96741.09
2022-12-27T00:11:41.422Z,96745.88
2022-12-27T00:14:08.267Z,96751.53
2022-12-27T00:16:35.167Z,96746.38
2022-12-27T00:19:02.512Z,96757.31
2022-12-27T00:21:29.176Z,96771.22
2022-12-27T00:23:57.653Z,96770.38
2022-12-27T00:26:30.173Z,96780.97
2022-12-27T00:28:57.794Z,96771.91
2022-12-27T00:31:26.591Z,96758.34
2022-12-27T00:33:56.009Z,96769.06
2022-12-27T00:36:25.501Z,96785.13
2022-12-27T00:38:53.368Z,96776.38
2022-12-27T00:41:20.719Z,96780.00
2022-12-27T00:43:48.010Z,96794.38
2022-12-27T00:46:15.527Z,96789.09
2022-12-27T00:48:42.540Z,96795.78
2022-12-27T00:51:22.002Z,96798.19
2022-12-27T00:53:49.320Z,96793.97
2022-12-27T00:56:18.697Z,96808.69
2022-12-27T00:58:45.290Z,96808.97
2022-12-27T01:01:15.680Z,96812.19
2022-12-27T01:03:42.437Z,96829.56
2022-12-27T01:06:16.304Z,96828.19
2022-12-27T01:08:43.280Z,96833.81
2022-12-27T01:11:11.202Z,96836.97
2022-12-27T01:13:38.960Z,96840.47
2022-12-27T01:16:14.248Z,96844.78
2022-12-27T01:18:40.899Z,96844.66
2022-12-27T01:21:09.206Z,96852.19
2022-12-27T01:23:36.858Z,96851.16
2022-12-27T01:26:07.594Z,96853.88
2022-12-27T01:28:35.044Z,96862.31
2022-12-27T01:31:12.297Z,96863.53
2022-12-27T01:33:39.333Z,96854.97
2022-12-27T01:36:13.818Z,96862.75
2022-12-27T01:38:42.951Z,96874.06
2022-12-27T01:41:40.214Z,96879.56
2022-12-27T01:44:34.792Z,96887.91
2022-12-27T01:47:03.210Z,96896.19
2022-12-27T01:49:30.135Z,96889.81
2022-12-27T01:51:56.877Z,96895.63
2022-12-27T01:54:24.090Z,96887.63
2022-12-27T01:56:50.808Z,96877.75
2022-12-27T01:59:17.676Z,96899.03
2022-12-27T02:01:47.901Z,96904.88
2022-12-27T02:04:19.027Z,96910.72
2022-12-27T02:06:47.087Z,96909.59
2022-12-27T02:09:33.021Z,96910.16
2022-12-27T02:12:02.059Z,96909.25
2022-12-27T02:14:32.537Z,96920.94
2022-12-27T02:17:02.585Z,96923.88
2022-12-27T02:19:41.406Z,96909.53
2022-12-27T02:23:08.077Z,96914.16
2022-12-27T02:25:59.702Z,96927.25
2022-12-27T02:28:47.426Z,96922.63
2022-12-27T02:31:24.952Z,96949.81
2022-12-27T02:33:53.271Z,96956.81
2022-12-27T02:36:27.408Z,96949.41
2022-12-27T02:38:58.930Z,96948.59
2022-12-27T02:41:46.274Z,96957.56
2022-12-27T02:44:35.571Z,96948.16
2022-12-27T02:47:21.176Z,96953.84
2022-12-27T02:50:06.494Z,96966.84
2022-12-27T02:52:57.704Z,96963.53
2022-12-27T02:55:43.137Z,96964.50
2022-12-27T02:58:25.103Z,96962.41
2022-12-27T03:01:47.286Z,96976.94
2022-12-27T03:04:38.039Z,96974.75
2022-12-27T03:07:32.867Z,96982.75
2022-12-27T03:10:33.048Z,97000.34
2022-12-27T03:14:03.295Z,97002.38
2022-12-27T03:16:37.990Z,97011.59
2022-12-27T03:19:40.809Z,96988.09
2022-12-27T03:22:28.174Z,97007.63
2022-12-27T03:25:15.639Z,97011.34
2022-12-27T03:27:44.427Z,97013.59
2022-12-27T03:30:31.038Z,97010.22
2022-12-27T03:33:12.972Z,97019.41
2022-12-27T03:36:27.470Z,97012.63
2022-12-27T03:39:15.379Z,97011.81
2022-12-27T03:42:12.355Z,97012.94
2022-12-27T03:44:40.124Z,97009.63
2022-12-27T03:47:22.764Z,97017.94
2022-12-27T03:50:03.496Z,97027.50
2022-12-27T03:53:04.699Z,97027.97
2022-12-27T03:55:33.477Z,97039.38
2022-12-27T03:58:00.584Z,97052.47
2022-12-27T04:00:27.402Z,97049.41
2022-12-27T04:02:54.220Z,97047.38
2022-12-27T04:05:20.990Z,97058.31
2022-12-27T04:08:06.405Z,97061.97
2022-12-27T04:10:51.700Z,97067.66
2022-12-27T04:13:37.040Z,97073.09
2022-12-27T04:16:22.308Z,97074.72
2022-12-27T04:19:07.480Z,97082.97
2022-12-27T04:21:52.527Z,97077.22
2022-12-27T04:24:37.993Z,97093.94
2022-12-27T04:27:23.384Z,97096.34
2022-12-27T04:30:08.225Z,97097.22
2022-12-27T04:32:53.441Z,97086.66
2022-12-27T04:35:20.045Z,97093.50
2022-12-27T04:37:46.624Z,97094.38
2022-12-27T04:40:31.481Z,97108.78
2022-12-27T04:43:16.278Z,97107.47
2022-12-27T04:46:01.867Z,97122.31
2022-12-27T04:48:48.292Z,97120.56
2022-12-27T04:51:33.835Z,97132.97
2022-12-27T04:54:19.041Z,97142.44
2022-12-27T04:56:45.681Z,97139.66
2022-12-27T04:59:30.567Z,97139.66
2022-12-27T05:02:03.499Z,97155.22
2022-12-27T05:04:35.473Z,97154.28
2022-12-27T05:07:25.317Z,97162.50
2022-12-27T05:10:10.699Z,97157.25
2022-12-27T05:12:56.011Z,97157.09
2022-12-27T05:15:22.651Z,97164.47
2022-12-27T05:17:49.282Z,97172.44
2022-12-27T05:20:16.099Z,97175.59
2022-12-27T05:23:00.913Z,97179.44
2022-12-27T05:25:38.391Z,97180.84
2022-12-27T05:28:07.072Z,97203.03
2022-12-27T05:30:35.394Z,97195.19
2022-12-27T05:33:02.695Z,97203.56
2022-12-27T05:35:29.452Z,97205.78
2022-12-27T05:37:56.093Z,97206.84
2022-12-27T05:40:24.065Z,97221.44
2022-12-27T05:42:51.103Z,97231.84
2022-12-27T05:45:18.270Z,97229.75
2022-12-27T05:47:45.029Z,97228.75
2022-12-27T05:50:12.088Z,97232.09
2022-12-27T05:52:41.143Z,97236.81
2022-12-27T05:55:09.127Z,97244.94
2022-12-27T05:57:36.138Z,97246.31
2022-12-27T06:00:06.335Z,97244.81
2022-12-27T06:02:33.125Z,97257.09
2022-12-27T06:04:59.873Z,97260.78
2022-12-27T06:07:26.468Z,97261.25
2022-12-27T06:09:54.241Z,97266.09
2022-12-27T06:12:20.875Z,97269.59
2022-12-27T06:14:47.521Z,97276.97
2022-12-27T06:17:14.177Z,97268.19
2022-12-27T06:19:40.839Z,97271.56
2022-12-27T06:22:07.429Z,97278.13
2022-12-27T06:24:34.052Z,97268.31
2022-12-27T06:27:00.697Z,97280.34
2022-12-27T06:29:27.292Z,97277.69
2022-12-27T06:31:53.912Z,97283.03
2022-12-27T06:34:20.543Z,97298.09
2022-12-27T06:36:50.886Z,97298.09
2022-12-27T06:39:19.093Z,97295.53
2022-12-27T06:41:46.191Z,97304.53
2022-12-27T06:44:12.786Z,97314.06
2022-12-27T06:46:39.415Z,97315.22
2022-12-27T06:49:06.077Z,97316.56
2022-12-27T06:51:34.276Z,97326.50
2022-12-27T06:54:00.927Z,97318.16
2022-12-27T06:56:27.624Z,97330.19
2022-12-27T06:58:54.680Z,97332.22
2022-12-27T07:01:24.342Z,97334.78
2022-12-27T07:03:56.924Z,97345.50
2022-12-27T07:06:24.752Z,97340.81
2022-12-27T07:08:51.760Z,97349.13
2022-12-27T07:11:19.635Z,97352.09
2022-12-27T07:13:49.277Z,97357.63
2022-12-27T07:16:20.094Z,97363.06
2022-12-27T07:18:49.818Z,97360.91
2022-12-27T07:21:19.939Z,97365.50
2022-12-27T07:23:47.011Z,97368.56
2022-12-27T07:26:19.714Z,97368.19
2022-12-27T07:28:47.161Z,97372.03
2022-12-27T07:31:19.250Z,97372.31
2022-12-27T07:33:46.928Z,97365.69
2022-12-27T07:36:18.768Z,97368.22
2022-12-27T07:38:45.859Z,97376.00
2022-12-27T07:41:13.911Z,97375.63
2022-12-27T07:43:40.850Z,97373.19
2022-12-27T07:46:10.660Z,97384.09
2022-12-27T07:48:37.803Z,97391.63
2022-12-27T07:51:05.245Z,97393.13
2022-12-27T07:53:32.000Z,97393.78
2022-12-27T07:55:58.887Z,97399.81
2022-12-27T07:58:25.774Z,97398.91
2022-12-27T08:00:53.015Z,97394.22
2022-12-27T08:03:20.398Z,97398.75
2022-12-27T08:05:53.126Z,97391.59
2022-12-27T08:08:23.535Z,97390.41
2022-12-27T08:10:50.374Z,97389.81
2022-12-27T08:13:16.986Z,97382.84
2022-12-27T08:15:44.335Z,97383.94
2022-12-27T08:18:11.113Z,97383.63
2022-12-27T08:20:37.737Z,97388.50
2022-12-27T08:23:04.770Z,97395.78
2022-12-27T08:25:31.377Z,97399.03
2022-12-27T08:28:10.452Z,97397.50
2022-12-27T08:30:38.261Z,97400.84
2022-12-27T08:33:04.978Z,97407.38
2022-12-27T08:38:18.669Z,97400.31
2022-12-27T08:40:46.260Z,97414.44
2022-12-27T08:43:14.288Z,97419.78
2022-12-27T08:45:41.007Z,97412.44
2022-12-27T08:48:08.050Z,97412.84
2022-12-27T08:50:34.806Z,97409.31
2022-12-27T08:53:03.711Z,97398.16
2022-12-27T08:55:30.691Z,97404.16
2022-12-27T08:58:13.809Z,97410.59
2022-12-27T09:00:42.546Z,97418.94
2022-12-27T09:03:09.945Z,97406.25
2022-12-27T09:05:41.479Z,97416.56
2022-12-27T09:08:08.637Z,97414.44
2022-12-27T09:10:35.288Z,97415.94
2022-12-27T09:13:01.900Z,97404.19
2022-12-27T09:15:28.561Z,97399.69
2022-12-27T09:17:55.165Z,97402.44
2022-12-27T09:20:21.773Z,97399.78
2022-12-27T09:22:48.433Z,97400.16
2022-12-27T09:25:15.166Z,97401.03
2022-12-27T09:27:41.850Z,97402.44
2022-12-27T09:30:08.999Z,97409.06
2022-12-27T09:32:35.690Z,97398.38
2022-12-27T09:35:03.611Z,97403.91
2022-12-27T09:37:31.797Z,97409.56
2022-12-27T09:39:58.432Z,97412.16
2022-12-27T09:43:07.588Z,97412.06
2022-12-27T09:45:38.122Z,97409.84
2022-12-27T09:48:10.307Z,97407.97
2022-12-27T09:50:47.570Z,97402.13
2022-12-27T09:53:24.855Z,97396.78
2022-12-27T09:55:58.063Z,97400.41
2022-12-27T09:58:43.144Z,97395.31
2022-12-27T10:01:21.669Z,97400.50
2022-12-27T10:03:49.280Z,97399.53
2022-12-27T10:06:27.692Z,97397.44
2022-12-27T10:09:21.943Z,97393.72
2022-12-27T10:12:18.909Z,97386.97
2022-12-27T10:15:07.888Z,97404.00
2022-12-27T10:17:53.424Z,97394.78
2022-12-27T10:20:59.549Z,97389.81
2022-12-27T10:23:30.203Z,97385.47
2022-12-27T10:26:04.222Z,97385.09
2022-12-27T10:28:43.222Z,97377.44
2022-12-27T10:31:18.603Z,97370.78
2022-12-27T10:33:47.881Z,97368.06
2022-12-27T10:36:19.375Z,97372.66
2022-12-27T10:38:45.983Z,97370.50
2022-12-27T10:41:40.607Z,97362.91
2022-12-27T10:44:11.926Z,97366.53
2022-12-27T10:46:41.271Z,97366.47
2022-12-27T10:49:22.488Z,97367.97
2022-12-27T10:51:51.334Z,97373.63
2022-12-27T10:54:24.036Z,97360.59
2022-12-27T10:56:51.111Z,97355.44
2022-12-27T10:59:35.768Z,97359.28
2022-12-27T11:02:02.832Z,97350.47
2022-12-27T11:04:31.132Z,97343.97
2022-12-27T11:06:59.935Z,97348.44
2022-12-27T11:09:36.799Z,97343.84
2022-12-27T11:12:28.829Z,97340.72
2022-12-27T11:15:01.485Z,97341.00
2022-12-27T11:18:09.340Z,97327.56
2022-12-27T11:20:44.838Z,97327.28
2022-12-27T11:23:18.527Z,97327.81
2022-12-27T11:25:56.999Z,97315.56
2022-12-27T11:28:42.980Z,97343.84
2022-12-27T11:31:18.871Z,97332.59
2022-12-27T11:33:49.033Z,97327.03
2022-12-27T11:36:25.381Z,97324.28
2022-12-27T11:38:52.050Z,97317.34
2022-12-27T11:41:46.777Z,97318.19
2022-12-27T11:44:24.557Z,97312.94
2022-12-27T11:46:59.538Z,97306.34
2022-12-27T11:49:37.038Z,97304.03
2022-12-27T11:52:12.765Z,97300.31
2022-12-27T11:54:45.309Z,97293.19
2022-12-27T11:57:15.266Z,97292.53
2022-12-27T12:00:27.296Z,97289.44
2022-12-27T12:02:59.906Z,97286.47
2022-12-27T12:05:40.308Z,97280.41
2022-12-27T12:08:23.037Z,97280.56
2022-12-27T12:10:55.482Z,97279.41
2022-12-27T12:13:43.499Z,97278.25
2022-12-27T12:16:51.874Z,97267.50
2022-12-27T12:19:55.699Z,97270.38
2022-12-27T12:22:34.446Z,97262.00
2022-12-27T12:25:28.471Z,97254.34
2022-12-27T12:28:56.382Z,97245.25
2022-12-27T12:31:44.344Z,97254.53
2022-12-27T12:34:59.002Z,97255.78
2022-12-27T12:37:59.418Z,97243.03
2022-12-27T12:40:38.068Z,97254.72
2022-12-27T12:43:28.109Z,97254.06
2022-12-27T12:46:16.607Z,97253.94
2022-12-27T12:49:10.949Z,97258.78
2022-12-27T12:51:43.498Z,97248.13
2022-12-27T12:54:36.507Z,97255.00
2022-12-27T12:57:20.596Z,97250.19
2022-12-27T13:00:08.919Z,97253.88
2022-12-27T13:02:35.711Z,97240.25
2022-12-27T13:05:31.689Z,97245.72
2022-12-27T13:08:22.293Z,97243.69
2022-12-27T13:11:02.104Z,97242.56
2022-12-27T13:13:34.489Z,97247.44
2022-12-27T13:16:32.691Z,97239.72
2022-12-27T13:19:30.351Z,97240.03
2022-12-27T13:22:18.732Z,97241.94
2022-12-27T13:25:10.991Z,97250.16
2022-12-27T13:27:55.951Z,97248.72
2022-12-27T13:30:25.168Z,97246.28
2022-12-27T13:33:14.940Z,97248.66
2022-12-27T13:36:07.101Z,97248.91
2022-12-27T13:39:01.609Z,97249.47
2022-12-27T13:41:34.215Z,97253.84
2022-12-27T13:44:11.939Z,97256.38
2022-12-27T13:47:19.015Z,97246.09
2022-12-27T13:50:17.927Z,97244.78
2022-12-27T13:53:03.836Z,97246.06
2022-12-27T13:55:56.077Z,97242.78
2022-12-27T13:58:31.524Z,97248.31
2022-12-27T14:01:24.211Z,97250.00
2022-12-27T14:04:38.742Z,97253.09
2022-12-27T14:07:25.173Z,97247.81
2022-12-27T14:10:04.372Z,97251.97
2022-12-27T14:12:57.478Z,97253.28
2022-12-27T14:15:29.029Z,97255.88
2022-12-27T14:18:07.492Z,97265.13
2022-12-27T14:20:49.333Z,97271.84
2022-12-27T14:23:43.452Z,97274.00
2022-12-27T14:26:47.704Z,97276.44
2022-12-27T14:29:26.414Z,97276.97
2022-12-27T14:32:13.573Z,97276.69
2022-12-27T14:35:01.443Z,97294.72
2022-12-27T14:38:03.286Z,97288.78
2022-12-27T14:40:54.759Z,97278.59
2022-12-27T14:43:58.469Z,97280.97
2022-12-27T14:46:43.654Z,97285.78
2022-12-27T14:49:38.280Z,97278.78
2022-12-27T14:52:42.607Z,97278.16
2022-12-27T14:55:40.844Z,97276.25
2022-12-27T14:58:17.487Z,97281.41
2022-12-27T15:00:58.129Z,97277.88
2022-12-27T15:03:43.378Z,97273.16
2022-12-27T15:06:40.085Z,97279.81
2022-12-27T15:09:35.751Z,97272.03
2022-12-27T15:12:23.955Z,97285.28
2022-12-27T15:15:08.938Z,97287.44
2022-12-27T15:17:48.241Z,97293.91
2022-12-27T15:20:37.797Z,97293.88
2022-12-27T15:23:22.644Z,97289.34
2022-12-27T15:26:06.780Z,97296.56
2022-12-27T15:28:48.383Z,97293.63
2022-12-27T15:31:56.671Z,97298.72
2022-12-27T15:34:30.561Z,97295.50
2022-12-27T15:36:57.481Z,97298.66
2022-12-27T15:39:32.987Z,97298.19
2022-12-27T15:42:08.807Z,97290.03
2022-12-27T15:45:12.676Z,97290.47
2022-12-27T15:48:00.990Z,97299.09
2022-12-27T15:50:42.497Z,97291.03
2022-12-27T15:54:01.793Z,97296.28
2022-12-27T15:56:52.516Z,97298.88
2022-12-27T15:59:34.251Z,97292.50
2022-12-27T16:02:36.679Z,97294.38
2022-12-27T16:05:25.776Z,97302.59
2022-12-27T16:08:12.432Z,97310.53
2022-12-27T16:10:42.037Z,97313.84
2022-12-27T16:13:11.609Z,97310.25
2022-12-27T16:15:47.774Z,97308.22
2022-12-27T16:18:23.729Z,97305.31
2022-12-27T16:21:19.173Z,97304.41
2022-12-27T16:23:45.714Z,97310.66
2022-12-27T16:26:26.302Z,97302.44
2022-12-27T16:29:14.263Z,97305.81
2022-12-27T16:31:50.595Z,97294.28
2022-12-27T16:34:30.234Z,97301.84
2022-12-27T16:37:00.770Z,97299.44
2022-12-27T16:39:39.118Z,97301.66
2022-12-27T16:42:08.299Z,97300.09
2022-12-27T16:44:51.069Z,97305.53
2022-12-27T16:47:29.761Z,97305.28
2022-12-27T16:50:14.548Z,97307.63
2022-12-27T16:52:53.988Z,97312.41
2022-12-27T16:55:42.307Z,97315.41
2022-12-27T16:58:18.045Z,97307.25
2022-12-27T17:00:51.877Z,97313.56
2022-12-27T17:03:21.019Z,97321.25
2022-12-27T17:06:21.578Z,97319.75
2022-12-27T17:08:36.528Z,97311.56
2022-12-27T17:11:25.386Z,97317.91
2022-12-27T17:14:04.182Z,97311.09
2022-12-27T17:16:45.904Z,97305.63
2022-12-27T17:19:37.299Z,97306.69
2022-12-27T17:22:08.042Z,97311.13
2022-12-27T17:24:34.964Z,97300.75
2022-12-27T17:27:17.041Z,97300.47
2022-12-27T17:30:14.510Z,97296.72
2022-12-27T17:33:19.456Z,97300.59
2022-12-27T17:35:58.245Z,97295.59
2022-12-27T17:38:57.166Z,97302.31
2022-12-27T17:42:02.747Z,97296.91
2022-12-27T17:45:13.862Z,97288.97
2022-12-27T17:47:48.409Z,97299.47
2022-12-27T17:50:20.035Z,97292.03
2022-12-27T17:53:24.928Z,97284.34
2022-12-27T17:56:28.716Z,97283.63
2022-12-27T17:59:08.363Z,97280.41
2022-12-27T18:01:40.733Z,97288.06
2022-12-27T18:04:07.960Z,97290.25
2022-12-27T18:06:37.152Z,97290.22
2022-12-27T18:09:04.594Z,97292.03
2022-12-27T18:11:34.869Z,97293.25
2022-12-27T18:14:02.041Z,97290.97
2022-12-27T18:16:47.832Z,97287.34
2022-12-27T18:19:19.728Z,97290.63
2022-12-27T18:21:57.724Z,97290.81
2022-12-27T18:24:33.007Z,97283.91
2022-12-27T18:27:01.751Z,97278.66
2022-12-27T18:29:28.567Z,97281.84
2022-12-27T18:32:00.967Z,97275.19
2022-12-27T18:34:46.457Z,97274.25
2022-12-27T18:37:18.889Z,97273.44
2022-12-27T18:39:54.115Z,97270.53
2022-12-27T18:42:31.719Z,97261.16
2022-12-27T18:45:15.449Z,97262.25
2022-12-27T18:47:47.235Z,97258.66
2022-12-27T18:50:19.321Z,97261.56
2022-12-27T18:52:52.968Z,97258.53
2022-12-27T18:55:27.939Z,97254.72
2022-12-27T18:58:06.688Z,97249.66
2022-12-27T19:00:47.676Z,97235.44
2022-12-27T19:03:17.183Z,97233.50
2022-12-27T19:06:02.658Z,97228.91
2022-12-27T19:08:34.678Z,97229.50
2022-12-27T19:11:02.219Z,97223.56
2022-12-27T19:13:35.678Z,97223.78
2022-12-27T19:16:02.386Z,97215.34
2022-12-27T19:18:36.134Z,97209.50
2022-12-27T19:21:06.790Z,97204.03
2022-12-27T19:23:36.303Z,97205.28
2022-12-27T19:26:05.928Z,97208.78
2022-12-27T19:28:33.571Z,97207.22
2022-12-27T19:31:21.920Z,97205.78
2022-12-27T19:33:53.909Z,97206.88
2022-12-27T19:36:26.926Z,97206.78
2022-12-27T19:38:53.910Z,97199.16
2022-12-27T19:41:20.603Z,97196.25
2022-12-27T19:43:47.516Z,97203.22
2022-12-27T19:46:14.784Z,97196.75
2022-12-27T19:48:41.773Z,97194.06
2022-12-27T19:51:15.967Z,97192.06
2022-12-27T19:53:44.793Z,97205.75
2022-12-27T19:56:12.048Z,97198.63
2022-12-27T19:58:39.076Z,97199.31
2022-12-27T20:01:05.732Z,97199.97
2022-12-27T20:03:32.659Z,97198.03
2022-12-27T20:06:14.360Z,97205.63
2022-12-27T20:08:49.847Z,97204.34
2022-12-27T20:11:22.646Z,97201.78
2022-12-27T20:13:50.060Z,97191.50
2022-12-27T20:16:18.717Z,97206.31
2022-12-27T20:18:46.305Z,97203.78
2022-12-27T20:21:20.498Z,97199.91
2022-12-27T20:23:48.105Z,97199.88
2022-12-27T20:26:19.453Z,97209.38
2022-12-27T20:28:46.437Z,97198.56
2022-12-27T20:31:15.221Z,97199.56
2022-12-27T20:33:42.453Z,97199.31
2022-12-27T20:36:09.923Z,97199.22
2022-12-27T20:38:39.283Z,97192.63
2022-12-27T20:41:17.752Z,97180.84
2022-12-27T20:43:44.902Z,97181.97
2022-12-27T20:46:14.232Z,97185.25
2022-12-27T20:48:43.553Z,97176.16
2022-12-27T20:51:12.913Z,97179.53
2022-12-27T20:53:39.534Z,97175.31
2022-12-27T20:56:09.019Z,97174.94
2022-12-27T20:58:35.954Z,97171.06
2022-12-27T21:01:17.011Z,97167.81
2022-12-27T21:03:44.733Z,97171.13
2022-12-27T21:06:13.110Z,97169.81
2022-12-27T21:08:46.460Z,97169.81
2022-12-27T21:11:23.368Z,97169.34
2022-12-27T21:13:50.513Z,97170.00
2022-12-27T21:16:25.438Z,97176.94
2022-12-27T21:18:52.520Z,97173.63
2022-12-27T21:21:22.005Z,97176.69
2022-12-27T21:23:48.851Z,97168.84
2022-12-27T21:26:24.899Z,97169.63
2022-12-27T21:28:51.896Z,97164.97
2022-12-27T21:31:18.988Z,97169.31
2022-12-27T21:33:46.063Z,97176.41
2022-12-27T21:36:15.384Z,97172.31
2022-12-27T21:38:42.388Z,97173.41
2022-12-27T21:41:21.021Z,97170.44
2022-12-27T21:43:49.198Z,97177.34
2022-12-27T21:46:25.793Z,97171.66
2022-12-27T21:49:03.982Z,97172.78
2022-12-27T21:51:31.848Z,97175.47
2022-12-27T21:53:58.664Z,97171.66
2022-12-27T21:56:26.062Z,97172.22
2022-12-27T21:58:55.430Z,97171.22
2022-12-27T22:01:25.161Z,97166.13
2022-12-27T22:03:53.230Z,97163.56
2022-12-27T22:06:24.697Z,97163.81
2022-12-27T22:08:54.708Z,97166.34
2022-12-27T22:11:22.649Z,97160.69
2022-12-27T22:13:49.520Z,97157.44
2022-12-27T22:16:37.988Z,97156.25
2022-12-27T22:19:09.905Z,97153.19
2022-12-27T22:21:38.434Z,97155.97
2022-12-27T22:24:05.856Z,97146.69
2022-12-27T22:26:37.215Z,97144.63
2022-12-27T22:29:06.710Z,97150.88
2022-12-27T22:31:36.688Z,97153.41
2022-12-27T22:34:05.005Z,97149.72
2022-12-27T22:36:31.957Z,97148.56
2022-12-27T22:38:59.803Z,97140.69
2022-12-27T22:41:29.601Z,97146.72
2022-12-27T22:44:01.885Z,97149.47
2022-12-27T22:46:51.244Z,97151.47
2022-12-27T22:49:17.225Z,97151.56
2022-12-27T22:51:43.857Z,97151.78
2022-12-27T22:54:10.506Z,97143.56
2022-12-27T22:56:39.989Z,97152.16
2022-12-27T22:59:11.506Z,97142.19
2022-12-27T23:01:39.108Z,97134.56
2022-12-27T23:04:08.445Z,97141.28
2022-12-27T23:06:36.038Z,97148.09
2022-12-27T23:09:04.278Z,97130.88
2022-12-27T23:11:33.571Z,97137.44
2022-12-27T23:14:06.704Z,97136.91
2022-12-27T23:16:37.791Z,97124.50
2022-12-27T23:19:04.830Z,97124.41
2022-12-27T23:21:31.477Z,97127.19
2022-12-27T23:23:58.221Z,97127.94
2022-12-27T23:26:24.861Z,97124.94
2022-12-27T23:28:52.842Z,97132.16
2022-12-27T23:31:21.770Z,97120.13
2022-12-27T23:33:48.831Z,97125.66
2022-12-27T23:36:15.615Z,97118.13
2022-12-27T23:38:43.122Z,97116.59
2022-12-27T23:41:14.761Z,97115.13
2022-12-27T23:43:56.979Z,97114.28
2022-12-27T23:46:31.846Z,97112.47
2022-12-27T23:49:00.976Z,97105.06
2022-12-27T23:51:29.375Z,97096.16
2022-12-27T23:53:56.454Z,97094.63
2022-12-27T23:56:28.811Z,97092.25
2022-12-27T23:58:57.495Z,97088.13
